• Join FlightAware (Why Join?)
  • Login
  • US Flag 
04:24AM EDT


 

Airport Tracker/Info


-or-


 

Live Flight TrackerFlight Track Log ✈ N845AE ✈ 02-Jun-2013 ✈ KDFW - KCOU

Flight Track Log - Related Links

Times and Time Zones

All times are in EDT time to prevent confusion due to time zone crossing. See the N845AE flight status page for this flight to view local times or setup timezone preferences in your user account.

Time Position Orientation Groundspeed Altitude Reporting Facility
EDT Latitude Longitude Course Direction KTS MPH feet Rate Location/Type
01:47PM 32.9000 -97.0333 356° North 151 174 1,300  Level Dallas / Fort Worth TRACON
01:48PM 32.9667 -97.0333 360° North 203 234 3,800 2,220 Climbing Dallas / Fort Worth TRACON
01:49PM 32.8380 -96.8024 10° North  Level FlightAware Approximate
01:50PM 32.9533 -96.8000 North  Level FlightAware Approximate
01:50PM 33.1042 -97.0142 North 234 269 8,800  Level Fort Worth Center
01:51PM 33.0687 -96.8002 356° North  Level FlightAware Approximate
01:51PM 33.1644 -96.9792 26° Northeast 251 289 10,400  Level Fort Worth Center
01:52PM 33.1839 -96.8098 356° North  Level FlightAware Approximate
01:52PM 33.2500 -96.9342 24° Northeast 286 329 11,600  Level Fort Worth Center
01:53PM 33.3375 -96.8889 23° Northeast 318 366 12,700 1,200 Climbing Fort Worth Center
01:54PM 33.4125 -96.8461 25° Northeast 334 384 14,100 1,440 Climbing Fort Worth Center
01:55PM 33.5061 -96.7881 27° Northeast 339 390 15,700 1,380 Climbing Fort Worth Center
01:56PM 33.5850 -96.7403 27° Northeast 339 390 16,900 1,260 Climbing Fort Worth Center
01:57PM 33.6786 -96.6797 28° Northeast 344 396 18,200 1,140 Climbing Fort Worth Center
01:58PM 33.7597 -96.6289 28° Northeast 344 396 19,300 1,200 Climbing Fort Worth Center
01:59PM 33.8575 -96.5631 29° Northeast 349 402 20,600 1,380 Climbing Fort Worth Center
02:00PM 33.9489 -96.5097 26° Northeast 354 407 22,100 1,200 Climbing Fort Worth Center
02:01PM 34.0467 -96.4708 18° North 360 414 23,000 420 Climbing Fort Worth Center
02:02PM 34.1383 -96.4372 17° North 360 414 23,000  Level Fort Worth Center
02:03PM 34.2400 -96.3608 32° Northeast 392 451 23,000 660 Level Fort Worth Center
02:04PM 34.3392 -96.2717 37° Northeast 420 483 24,400 1,380 Climbing Fort Worth Center
02:05PM 34.4344 -96.1897 35° Northeast 425 489 25,800 1,320 Climbing Fort Worth Center
02:06PM 34.5275 -96.1103 35° Northeast 418 481 27,100 1,260 Climbing Fort Worth Center
02:07PM 34.6186 -96.0283 36° Northeast 413 475 28,400 1,440 Climbing Fort Worth Center
02:08PM 34.7197 -95.9356 37° Northeast 408 470 30,000 1,440 Climbing Fort Worth Center
02:09PM 34.8125 -95.8531 36° Northeast 403 464 31,300 1,200 Climbing Fort Worth Center
02:10PM 34.8972 -95.7831 34° Northeast 403 464 32,500 1,140 Climbing Fort Worth Center
02:11PM 34.9900 -95.7003 36° Northeast 408 470 33,700 1,080 Climbing Fort Worth Center
02:12PM 35.0806 -95.6147 38° Northeast 413 475 34,700 900 Climbing Fort Worth Center
02:13PM 35.1731 -95.5239 39° Northeast 413 475 35,500 780 Climbing Fort Worth Center
02:15PM 35.3494 -95.3539 38° Northeast 428 493 37,000 480 Climbing Memphis Center
02:16PM 35.4469 -95.2606 38° Northeast 434 499 37,000  Level Memphis Center
02:17PM 35.5511 -95.1594 38° Northeast 452 520 37,000  Level Memphis Center
02:18PM 35.6572 -95.0556 38° Northeast 466 536 37,000  Level Memphis Center
02:19PM 35.7592 -94.9514 40° Northeast 471 542 37,000  Level Memphis Center
02:20PM 35.8631 -94.8472 39° Northeast 471 542 37,000  Level Memphis Center
02:21PM 35.9667 -94.7450 39° Northeast 471 542 37,000  Level Memphis Center
02:22PM 36.0683 -94.6428 39° Northeast 466 536 37,000 -300 Level Memphis Center
02:23PM 36.2111 -94.5022 38° Northeast 475 547 36,400 -600 Descending Kansas City Center
02:24PM 36.3153 -94.3981 39° Northeast 477 549 35,700 -720 Descending Kansas City Center
02:25PM 36.4192 -94.2925 39° Northeast 480 552 35,000 -360 Descending Kansas City Center
02:26PM 36.5219 -94.1894 39° Northeast 480 552 35,000  Level Kansas City Center
02:27PM 36.6442 -94.0664 39° Northeast 475 547 35,000  Level Kansas City Center
02:28PM 36.7439 -93.9653 39° Northeast 469 540 35,000  Level Kansas City Center
02:29PM 36.8414 -93.8653 39° Northeast 463 533 35,000  Level Kansas City Center
02:30PM 36.9414 -93.7628 39° Northeast 451 519 35,000  Level Kansas City Center
02:31PM 37.0361 -93.6625 40° Northeast 446 513 35,000  Level Kansas City Center
02:32PM 37.1322 -93.5644 39° Northeast 444 511 35,000  Level Kansas City Center
02:33PM 37.2292 -93.4658 39° Northeast 446 513 35,000 -600 Level Kansas City Center
02:35PM 37.3286 -93.3633 39° Northeast 455 524 33,800 -1,500 Descending Kansas City Center
02:36PM 37.4575 -93.2558 33° Northeast 458 527 32,000 -1,560 Descending Kansas City Center
02:37PM 37.5681 -93.1744 30° Northeast 458 527 30,600 -1,440 Descending Kansas City Center
02:38PM 37.6764 -93.0933 31° Northeast 454 522 29,100 -1,500 Descending Kansas City Center
02:39PM 37.7833 -93.0125 31° Northeast 446 513 27,600 -2,040 Descending Kansas City Center
02:40PM 37.8886 -92.9322 31° Northeast 440 506 24,900 -2,940 Descending Kansas City Center
02:41PM 37.9925 -92.8553 30° Northeast 431 496 21,600 -3,000 Descending Kansas City Center
02:42PM 38.0883 -92.7819 31° Northeast 408 470 18,800 -2,820 Descending Kansas City Center
02:43PM 38.1803 -92.7108 31° Northeast 383 441 15,800 -2,880 Descending Kansas City Center
02:44PM 38.2672 -92.6458 30° Northeast 373 429 12,900 -2,460 Descending Kansas City Center
02:45PM 38.3664 -92.5683 31° Northeast 357 411 10,800 -1,500 Descending Kansas City Center
02:46PM 38.4319 -92.5106 35° Northeast 313 360 9,800 -1,500 Descending Kansas City Center
02:47PM 38.4833 -92.4350 49° Northeast 288 331 7,800 -1,800 Descending Kansas City Center
02:48PM 38.5306 -92.3608 51° Northeast 273 314 6,100 -1,620 Descending Kansas City Center
02:49PM 38.5956 -92.3294 21° North 255 293 4,500 -1,560 Descending Kansas City Center